WEATHER DATA

YESTERDAY
Time Temp. Dewp. Hum. Bar. 1h Prec. 24h Prec.
00:01 13.7 10.9 83 993.7 0.0000 0.0000
00:11 13.6 10.8 83 993.7 0.0000 0.0000
00:21 13.6 10.8 83 993.7 0.0000 0.0000
00:31 13.5 10.9 84 993.6 0.0000 0.0000
00:42 13.5 10.9 84 993.5 0.0000 0.0000
00:52 13.5 10.9 84 993.4 0.0000 0.0000
01:01 13.5 10.9 84 993.4 0.0000 0.0000
01:12 13.5 11 85 993.4 0.0000 0.0000
01:22 13.4 10.9 85 993.3 0.0000 0.0000
01:32 13.4 10.9 85 993.3 0.0000 0.0000
01:42 13.3 10.8 85 993.3 0.0000 0.0000
01:52 13.2 10.7 85 993.3 0.0000 0.0000
02:02 13.1 10.6 85 993.2 0.0000 0.0000
02:12 13 10.5 85 993.1 0.0000 0.0000
02:23 13 10.5 85 993.1 0.0000 0.0000
02:32 12.9 10.6 86 992.9 0.0000 0.0000
02:42 12.8 10.3 85 992.9 0.0000 0.0000
02:52 12.7 10.4 86 992.9 0.0000 0.0000
03:03 12.6 10.3 86 992.8 0.0000 0.0000
03:13 12.4 10.1 86 992.9 0.0000 0.0000
03:22 12.3 10 86 992.8 0.0000 0.0000
03:33 12.2 9.9 86 992.8 0.0000 0.0000
03:43 12.2 10.1 87 992.7 0.0000 0.0000
03:53 12.2 10.1 87 992.8 0.0000 0.0000
04:03 12.2 10.1 87 992.7 0.0000 0.0000
04:13 12.2 10.1 87 992.7 0.0000 0.0000
04:23 12.2 10.1 87 992.6 0.0000 0.0000
04:33 12.1 10 87 992.6 0.0000 0.0000
04:44 12.1 10 87 992.6 0.0000 0.0000
04:53 12 9.9 87 992.6 0.0000 0.0000
05:03 11.9 9.6 86 992.6 0.0000 0.0000
05:13 11.8 9.5 86 992.6 0.0000 0.0000
05:24 11.7 9.4 86 992.6 0.0000 0.0000
05:34 11.7 9.4 86 992.6 0.0000 0.0000
05:43 11.6 9.3 86 992.6 0.0000 0.0000
05:54 11.6 9.3 86 992.6 0.0000 0.0000
06:04 11.6 9.3 86 992.7 0.0000 0.0000
06:14 11.6 9.3 86 992.8 0.0000 0.0000
06:23 11.7 9.4 86 992.9 0.0000 0.0000
06:34 11.9 9.6 86 993 0.0000 0.0000
06:44 12.4 10.1 86 993 0.0000 0.0000
06:54 12.7 10.1 84 992.9 0.0000 0.0000
07:05 12.9 10.3 84 992.9 0.0000 0.0000
07:14 13.2 10.4 83 992.9 0.0000 0.0000
07:24 13.5 10.5 82 992.9 0.0000 0.0000
07:34 13.5 10.5 82 992.9 0.0000 0.0000
07:45 13.8 10.8 82 993 0.0000 0.0000
07:55 13.8 10.6 81 993.1 0.0000 0.0000
08:04 13.9 10.7 81 993.1 0.0000 0.0000
08:15 14 10.8 81 993.1 0.0000 0.0000
08:25 14.4 11.2 81 993.1 0.0000 0.0000
08:35 14.6 11 79 993.1 0.0000 0.0000
08:45 14.5 10.9 79 993.2 0.0000 0.0000
08:55 14.4 10.6 78 993.3 0.0000 0.0000
09:05 14.4 10.8 79 993.3 0.0000 0.0000
09:15 14.5 10.9 79 993.3 0.0000 0.0000
09:25 14.6 10.8 78 993.4 0.0000 0.0000
09:35 14.5 10.7 78 993.4 0.0000 0.0000
09:45 14.4 10.6 78 993.5 0.0000 0.0000
09:55 14.4 10.4 77 993.6 0.0000 0.0000
10:06 14.6 10.4 76 993.6 0.0000 0.0000
10:16 14.8 10.4 75 993.6 0.0000 0.0000
10:25 15 10.6 75 993.6 0.0000 0.0000
10:36 15.2 10.8 75 993.6 0.0000 0.0000
10:46 15.4 10.8 74 993.7 0.0000 0.0000
10:56 15.5 10.7 73 993.7 0.0000 0.0000
11:06 15.5 10.5 72 993.7 0.0000 0.0000
11:16 15.6 10.4 71 993.6 0.0000 0.0000
11:26 15.9 10.4 70 993.6 0.0000 0.0000
11:36 15.9 10.2 69 993.6 0.0000 0.0000
11:46 16 10.3 69 993.7 0.0000 0.0000
11:56 16.3 10.6 69 993.8 0.0000 0.0000
12:06 16.7 10.5 67 993.9 0.0000 0.0000
12:16 16.9 11 68 993.9 0.0000 0.0000
12:27 17 10.4 65 993.9 0.0000 0.0000
12:37 17.4 10.8 65 994 0.0000 0.0000
12:46 17.3 10.2 63 994.1 0.0000 0.0000
12:57 16.8 10.2 65 994.2 0.0000 0.0000
13:07 16.7 9.9 64 994.3 0.0000 0.0000
13:17 16.3 9.5 64 994.4 0.0000 0.0000
13:26 16.4 10 66 994.4 0.0000 0.0000
13:37 16.3 9.7 65 994.4 0.0000 0.0000
13:47 16.1 9.5 65 994.5 0.0000 0.0000
13:57 16 9.4 65 994.5 0.0000 0.0000
14:07 15.8 9 64 994.5 0.0000 0.0000
14:17 15.8 9.5 66 994.7 0.0000 0.0000
14:27 15.9 9.6 66 994.7 0.0000 0.0000
14:37 16.4 9.3 63 994.8 0.0000 0.0000
14:48 16.2 8.9 62 994.9 0.0000 0.0000
14:58 15.7 8.4 62 994.8 0.0000 0.0000
15:07 15.7 8.9 64 994.7 0.0000 0.0000
15:18 15.9 9.3 65 994.8 0.0000 0.0000
15:28 15.7 9.1 65 994.8 0.0000 0.0000
15:38 15.6 8.8 64 994.8 0.0000 0.0000
15:47 15.5 8.7 64 994.8 0.0000 0.0000
15:58 15.5 9 65 994.8 0.0000 0.0000
16:08 15.5 9.2 66 994.9 0.0000 0.0000
16:18 15.6 9.1 65 994.8 0.0000 0.0000
16:28 15.7 9.4 66 994.8 0.0000 0.0000
16:38 15.7 9.1 65 994.9 0.0000 0.0000
16:48 15.8 9.2 65 994.7 0.0000 0.0000
16:58 16 9.2 64 994.7 0.0000 0.0000
17:09 15.9 8.9 63 994.8 0.0000 0.0000
17:19 15.6 8.8 64 994.9 0.0000 0.0000
17:28 15.3 8.5 64 994.9 0.0000 0.0000
17:39 15 8.5 65 995.2 0.0000 0.0000
17:49 14.7 8.6 67 995.2 0.0000 0.0000
17:59 14.6 8.8 68 995.2 0.0000 0.0000
18:08 14.5 8.7 68 995.2 0.0000 0.0000
18:19 14.6 9 69 995.2 0.0000 0.0000
18:29 15 8.9 67 995.2 0.0000 0.0000
18:39 14.9 8.6 66 995.2 0.0000 0.0000
18:49 14.8 8.3 65 995.3 0.0000 0.0000
18:59 14.4 7.9 65 995.4 0.0000 0.0000
19:09 14.1 8.1 67 995.4 0.0000 0.0000
19:19 13.8 8 68 995.7 0.0000 0.0000
19:30 13.5 7.9 69 995.8 0.0000 0.0000
19:40 13.2 7.9 70 996 0.0000 0.0000
19:49 13.1 7.8 70 996.1 0.0000 0.0000
20:00 13.1 8 71 996.1 0.0000 0.0000
20:10 12.9 7.8 71 996.1 0.0000 0.0000
20:20 12.7 7.8 72 996.1 0.0000 0.0000
20:29 12.5 7.8 73 996.2 0.0000 0.0000
20:40 12.1 7.6 74 996.3 0.0000 0.0000
20:50 11.8 7.5 75 996.3 0.0000 0.0000
21:00 11.5 7.4 76 996.4 0.0000 0.0000
21:10 11.2 7.3 77 996.4 0.0000 0.0000
21:20 10.9 7.2 78 996.5 0.0000 0.0000
21:30 10.7 7 78 996.6 0.0000 0.0000
21:40 10.3 6.8 79 996.6 0.0000 0.0000
21:51 10 6.7 80 996.7 0.0000 0.0000
22:01 9.7 6.6 81 996.8 0.0000 0.0000
22:10 9.4 6.3 81 996.8 0.0000 0.0000
22:21 9 5.9 81 996.8 0.0000 0.0000
22:31 8.7 5.8 82 996.8 0.0000 0.0000
22:41 8.5 5.8 83 996.8 0.0000 0.0000
22:50 8.3 5.6 83 996.9 0.0000 0.0000
23:01 8 5.5 84 997 0.0000 0.0000
23:11 7.9 5.4 84 997 0.0000 0.0000
23:21 7.6 5.1 84 997.2 0.0000 0.0000
23:31 7.4 5 85 997.2 0.0000 0.0000
23:41 7.3 5.1 86 997.3 0.0000 0.0000
23:51 7.2 4.9 85 997.5 0.0000 0.0000

DAY STATISTIC

2021-08-01
TEMPERATURE
AVERAGE
13.5
HIGH
17.4
12:37
LOW
7.2
23:51
PRESSURE
AVERAGE
994.3
HIGH
997.5
23:51
LOW
992.6
04:23
DEWPOINT
AVERAGE
9.3
HIGH
11.2
08:25
LOW
4.9
23:51
HUMIDITY
AVERAGE
76
HIGH
87
03:43
LOW
62
14:48
PRECIPITATION
RAIN HOUR
0.0
RAIN DAY
0.0
TEMPERATURE (°C)
LOW
7.2
HIGH
17.4
AVERAGE
13.5
PRESSURE (hpa)
LOW
992.6
HIGH
997.5
AVERAGE
994.3
DEVICE